sensor_id;sensor_type;location;lat;lon;timestamp;pressure;altitude;pressure_sealevel;temperature;humidity
54556;BME280;57291;37.520;15.106;2023-06-14T00:01:35;100692.88;;;22.79;87.35
54556;BME280;57291;37.520;15.106;2023-06-14T00:04:02;100692.53;;;22.81;88.10
54556;BME280;57291;37.520;15.106;2023-06-14T00:06:31;100694.53;;;22.84;88.73
54556;BME280;57291;37.520;15.106;2023-06-14T00:09:00;100674.38;;;22.87;89.26
54556;BME280;57291;37.520;15.106;2023-06-14T00:11:27;100666.06;;;22.87;88.24
54556;BME280;57291;37.520;15.106;2023-06-14T00:13:56;100673.22;;;22.91;87.30
54556;BME280;57291;37.520;15.106;2023-06-14T00:16:23;100679.56;;;22.92;87.23
54556;BME280;57291;37.520;15.106;2023-06-14T00:18:51;100682.34;;;22.92;87.29
54556;BME280;57291;37.520;15.106;2023-06-14T00:21:21;100676.84;;;22.96;87.55
54556;BME280;57291;37.520;15.106;2023-06-14T00:23:48;100668.94;;;22.94;88.32
54556;BME280;57291;37.520;15.106;2023-06-14T00:26:16;100663.34;;;22.90;89.01
54556;BME280;57291;37.520;15.106;2023-06-14T00:28:43;100665.69;;;22.88;89.65
54556;BME280;57291;37.520;15.106;2023-06-14T00:31:10;100673.19;;;22.88;90.97
54556;BME280;57291;37.520;15.106;2023-06-14T00:33:37;100668.41;;;22.85;92.68
54556;BME280;57291;37.520;15.106;2023-06-14T00:36:05;100671.50;;;22.80;92.89
54556;BME280;57291;37.520;15.106;2023-06-14T00:38:32;100677.44;;;22.78;93.49
54556;BME280;57291;37.520;15.106;2023-06-14T00:41:00;100675.03;;;22.77;94.16
54556;BME280;57291;37.520;15.106;2023-06-14T00:43:27;100656.84;;;22.76;95.51
54556;BME280;57291;37.520;15.106;2023-06-14T00:45:55;100638.56;;;22.67;97.18
54556;BME280;57291;37.520;15.106;2023-06-14T00:48:22;100616.31;;;22.60;99.80
54556;BME280;57291;37.520;15.106;2023-06-14T00:50:51;100609.91;;;22.53;100.00
54556;BME280;57291;37.520;15.106;2023-06-14T00:53:20;100612.97;;;22.44;100.00
54556;BME280;57291;37.520;15.106;2023-06-14T00:55:50;100592.34;;;22.38;100.00
54556;BME280;57291;37.520;15.106;2023-06-14T00:58:17;100582.81;;;22.35;100.00
54556;BME280;57291;37.520;15.106;2023-06-14T01:00:45;100569.69;;;22.29;100.00
54556;BME280;57291;37.520;15.106;2023-06-14T01:03:12;100571.22;;;22.22;100.00
54556;BME280;57291;37.520;15.106;2023-06-14T01:05:41;100578.25;;;22.16;100.00
54556;BME280;57291;37.520;15.106;2023-06-14T01:11:14;100565.00;;;22.02;100.00
54556;BME280;57291;37.520;15.106;2023-06-14T01:13:46;100558.59;;;21.95;100.00
54556;BME280;57291;37.520;15.106;2023-06-14T01:16:14;100546.63;;;21.87;100.00
54556;BME280;57291;37.520;15.106;2023-06-14T01:18:41;100562.84;;;21.85;100.00
54556;BME280;57291;37.520;15.106;2023-06-14T01:21:24;100573.41;;;21.80;100.00
54556;BME280;57291;37.520;15.106;2023-06-14T01:23:52;100581.72;;;21.80;100.00
54556;BME280;57291;37.520;15.106;2023-06-14T01:26:21;100580.41;;;21.70;100.00
54556;BME280;57291;37.520;15.106;2023-06-14T01:28:51;100596.19;;;21.69;100.00
54556;BME280;57291;37.520;15.106;2023-06-14T01:31:25;100592.94;;;21.64;100.00
54556;BME280;57291;37.520;15.106;2023-06-14T01:33:54;100593.84;;;21.71;100.00
54556;BME280;57291;37.520;15.106;2023-06-14T01:36:25;100598.63;;;21.74;100.00
54556;BME280;57291;37.520;15.106;2023-06-14T01:38:57;100590.38;;;21.78;100.00
54556;BME280;57291;37.520;15.106;2023-06-14T01:41:26;100595.97;;;21.82;100.00
54556;BME280;57291;37.520;15.106;2023-06-14T01:43:54;100594.47;;;21.88;100.00
54556;BME280;57291;37.520;15.106;2023-06-14T01:46:23;100593.34;;;21.92;100.00
54556;BME280;57291;37.520;15.106;2023-06-14T01:48:50;100592.97;;;21.94;100.00
54556;BME280;57291;37.520;15.106;2023-06-14T01:51:19;100593.78;;;21.98;100.00
54556;BME280;57291;37.520;15.106;2023-06-14T01:53:47;100587.06;;;21.95;100.00
54556;BME280;57291;37.520;15.106;2023-06-14T01:56:15;100583.50;;;21.95;100.00
54556;BME280;57291;37.520;15.106;2023-06-14T01:58:43;100567.78;;;22.02;100.00
54556;BME280;57291;37.520;15.106;2023-06-14T02:01:10;100546.88;;;22.05;100.00
54556;BME280;57291;37.520;15.106;2023-06-14T02:03:39;100525.47;;;22.02;100.00
54556;BME280;57291;37.520;15.106;2023-06-14T02:06:06;100523.78;;;21.94;100.00
54556;BME280;57291;37.520;15.106;2023-06-14T02:08:33;100520.91;;;21.83;100.00
54556;BME280;57291;37.520;15.106;2023-06-14T02:11:00;100531.13;;;21.79;100.00
54556;BME280;57291;37.520;15.106;2023-06-14T02:13:27;100539.75;;;21.74;100.00
54556;BME280;57291;37.520;15.106;2023-06-14T02:15:55;100550.03;;;21.73;100.00
54556;BME280;57291;37.520;15.106;2023-06-14T02:18:23;100548.00;;;21.70;100.00
54556;BME280;57291;37.520;15.106;2023-06-14T02:20:50;100558.59;;;21.65;100.00
54556;BME280;57291;37.520;15.106;2023-06-14T02:23:17;100557.00;;;21.64;100.00
54556;BME280;57291;37.520;15.106;2023-06-14T02:25:44;100554.19;;;21.60;100.00
54556;BME280;57291;37.520;15.106;2023-06-14T02:28:13;100552.13;;;21.53;100.00
54556;BME280;57291;37.520;15.106;2023-06-14T02:30:40;100558.50;;;21.58;100.00
54556;BME280;57291;37.520;15.106;2023-06-14T02:33:07;100564.81;;;21.58;100.00
54556;BME280;57291;37.520;15.106;2023-06-14T02:35:35;100568.47;;;21.62;100.00
54556;BME280;57291;37.520;15.106;2023-06-14T02:38:02;100567.31;;;21.67;100.00
54556;BME280;57291;37.520;15.106;2023-06-14T02:40:29;100564.56;;;21.67;100.00
54556;BME280;57291;37.520;15.106;2023-06-14T02:42:56;100570.97;;;21.74;100.00
54556;BME280;57291;37.520;15.106;2023-06-14T02:45:23;100571.00;;;21.78;100.00
54556;BME280;57291;37.520;15.106;2023-06-14T02:47:50;100561.19;;;21.81;100.00
54556;BME280;57291;37.520;15.106;2023-06-14T02:50:18;100541.44;;;21.82;100.00
54556;BME280;57291;37.520;15.106;2023-06-14T02:52:45;100519.38;;;21.86;100.00
54556;BME280;57291;37.520;15.106;2023-06-14T02:55:14;100522.16;;;21.89;100.00
54556;BME280;57291;37.520;15.106;2023-06-14T02:57:41;100548.19;;;21.85;100.00
54556;BME280;57291;37.520;15.106;2023-06-14T03:00:10;100558.44;;;21.84;100.00
54556;BME280;57291;37.520;15.106;2023-06-14T03:02:43;100562.84;;;21.85;100.00
54556;BME280;57291;37.520;15.106;2023-06-14T03:05:12;100565.16;;;21.83;100.00
54556;BME280;57291;37.520;15.106;2023-06-14T03:07:42;100568.41;;;21.89;100.00
54556;BME280;57291;37.520;15.106;2023-06-14T03:10:12;100578.72;;;21.92;100.00
54556;BME280;57291;37.520;15.106;2023-06-14T03:12:43;100573.59;;;21.94;100.00
54556;BME280;57291;37.520;15.106;2023-06-14T03:15:11;100583.16;;;22.00;100.00
54556;BME280;57291;37.520;15.106;2023-06-14T03:17:44;100569.31;;;22.00;100.00
54556;BME280;57291;37.520;15.106;2023-06-14T03:20:15;100570.91;;;22.01;100.00
54556;BME280;57291;37.520;15.106;2023-06-14T03:22:46;100574.50;;;22.01;100.00
54556;BME280;57291;37.520;15.106;2023-06-14T03:25:14;100585.19;;;22.03;100.00
54556;BME280;57291;37.520;15.106;2023-06-14T03:27:44;100588.69;;;22.00;100.00
54556;BME280;57291;37.520;15.106;2023-06-14T03:30:11;100594.28;;;22.04;100.00
54556;BME280;57291;37.520;15.106;2023-06-14T03:32:41;100605.78;;;22.06;100.00
54556;BME280;57291;37.520;15.106;2023-06-14T03:35:08;100605.03;;;22.09;100.00
54556;BME280;57291;37.520;15.106;2023-06-14T03:37:35;100614.94;;;22.13;100.00
54556;BME280;57291;37.520;15.106;2023-06-14T03:40:03;100614.22;;;22.16;100.00
54556;BME280;57291;37.520;15.106;2023-06-14T03:42:35;100607.50;;;22.17;100.00
54556;BME280;57291;37.520;15.106;2023-06-14T03:45:03;100607.50;;;22.17;100.00
54556;BME280;57291;37.520;15.106;2023-06-14T03:47:31;100610.72;;;22.19;100.00
54556;BME280;57291;37.520;15.106;2023-06-14T03:49:58;100611.09;;;22.18;100.00
54556;BME280;57291;37.520;15.106;2023-06-14T03:52:25;100610.72;;;22.19;100.00
54556;BME280;57291;37.520;15.106;2023-06-14T03:54:53;100615.53;;;22.26;100.00
54556;BME280;57291;37.520;15.106;2023-06-14T03:57:23;100615.16;;;22.28;100.00
54556;BME280;57291;37.520;15.106;2023-06-14T03:59:51;100616.00;;;22.32;100.00
54556;BME280;57291;37.520;15.106;2023-06-14T04:02:18;100614.06;;;22.36;100.00
54556;BME280;57291;37.520;15.106;2023-06-14T04:04:46;100616.84;;;22.36;98.89
54556;BME280;57291;37.520;15.106;2023-06-14T04:07:15;100601.44;;;22.38;95.76
54556;BME280;57291;37.520;15.106;2023-06-14T04:09:46;100609.38;;;22.40;95.20
54556;BME280;57291;37.520;15.106;2023-06-14T04:12:14;100608.22;;;22.41;95.86
54556;BME280;57291;37.520;15.106;2023-06-14T04:14:41;100620.06;;;22.41;95.81
54556;BME280;57291;37.520;15.106;2023-06-14T04:17:10;100616.91;;;22.43;95.22
54556;BME280;57291;37.520;15.106;2023-06-14T04:19:39;100610.59;;;22.42;95.26
54556;BME280;57291;37.520;15.106;2023-06-14T04:22:07;100605.09;;;22.46;93.84
54556;BME280;57291;37.520;15.106;2023-06-14T04:24:35;100615.38;;;22.45;93.38
54556;BME280;57291;37.520;15.106;2023-06-14T04:27:04;100612.97;;;22.44;93.72
54556;BME280;57291;37.520;15.106;2023-06-14T04:29:31;100617.34;;;22.45;93.86
54556;BME280;57291;37.520;15.106;2023-06-14T04:32:03;100626.44;;;22.45;93.25
54556;BME280;57291;37.520;15.106;2023-06-14T04:34:32;100628.81;;;22.47;92.80
54556;BME280;57291;37.520;15.106;2023-06-14T04:37:02;100630.84;;;22.50;90.84
54556;BME280;57291;37.520;15.106;2023-06-14T04:39:36;100635.28;;;22.58;92.21
54556;BME280;57291;37.520;15.106;2023-06-14T04:42:04;100642.41;;;22.59;92.15
54556;BME280;57291;37.520;15.106;2023-06-14T04:44:33;100647.16;;;22.59;93.77
54556;BME280;57291;37.520;15.106;2023-06-14T04:47:03;100644.34;;;22.55;95.95
54556;BME280;57291;37.520;15.106;2023-06-14T04:49:31;100658.16;;;22.52;97.27
54556;BME280;57291;37.520;15.106;2023-06-14T04:52:00;100653.75;;;22.47;98.02
54556;BME280;57291;37.520;15.106;2023-06-14T04:54:34;100661.66;;;22.45;98.35
54556;BME280;57291;37.520;15.106;2023-06-14T04:57:07;100661.22;;;22.43;96.48
54556;BME280;57291;37.520;15.106;2023-06-14T04:59:35;100661.97;;;22.40;95.91
54556;BME280;57291;37.520;15.106;2023-06-14T05:02:03;100668.34;;;22.44;95.41
54556;BME280;57291;37.520;15.106;2023-06-14T05:04:30;100654.94;;;22.46;95.25
54556;BME280;57291;37.520;15.106;2023-06-14T05:06:58;100658.91;;;22.48;94.85
54556;BME280;57291;37.520;15.106;2023-06-14T05:09:25;100655.41;;;22.52;93.86
54556;BME280;57291;37.520;15.106;2023-06-14T05:11:52;100653.47;;;22.56;92.42
54556;BME280;57291;37.520;15.106;2023-06-14T05:14:20;100648.78;;;22.63;91.37
54556;BME280;57291;37.520;15.106;2023-06-14T05:16:50;100665.09;;;22.72;91.10
54556;BME280;57291;37.520;15.106;2023-06-14T05:19:17;100680.69;;;22.84;91.11
54556;BME280;57291;37.520;15.106;2023-06-14T05:21:45;100682.78;;;22.94;90.35
54556;BME280;57291;37.520;15.106;2023-06-14T05:24:13;100687.25;;;23.06;90.07
54556;BME280;57291;37.520;15.106;2023-06-14T05:26:40;100683.03;;;23.19;89.25
54556;BME280;57291;37.520;15.106;2023-06-14T05:29:08;100680.75;;;23.32;88.73
54556;BME280;57291;37.520;15.106;2023-06-14T05:31:35;100687.59;;;23.45;87.55
54556;BME280;57291;37.520;15.106;2023-06-14T05:34:02;100685.31;;;23.58;86.55
54556;BME280;57291;37.520;15.106;2023-06-14T05:36:29;100682.28;;;23.70;85.05
54556;BME280;57291;37.520;15.106;2023-06-14T05:38:57;100686.31;;;23.80;83.55
54556;BME280;57291;37.520;15.106;2023-06-14T05:41:27;100698.28;;;23.91;84.01
54556;BME280;57291;37.520;15.106;2023-06-14T05:43:56;100695.94;;;23.97;85.56
54556;BME280;57291;37.520;15.106;2023-06-14T05:46:23;100697.06;;;23.88;87.77
54556;BME280;57291;37.520;15.106;2023-06-14T05:48:54;100697.13;;;23.96;89.43
54556;BME280;57291;37.520;15.106;2023-06-14T05:51:22;100695.28;;;24.25;88.82
54556;BME280;57291;37.520;15.106;2023-06-14T05:53:52;100699.13;;;25.00;87.43
54556;BME280;57291;37.520;15.106;2023-06-14T05:56:19;100700.72;;;26.23;84.10
54556;BME280;57291;37.520;15.106;2023-06-14T05:58:47;100706.78;;;27.51;77.47
54556;BME280;57291;37.520;15.106;2023-06-14T06:01:14;100707.38;;;28.83;70.60
54556;BME280;57291;37.520;15.106;2023-06-14T06:03:42;100703.16;;;29.76;64.89
54556;BME280;57291;37.520;15.106;2023-06-14T06:06:13;100708.59;;;29.59;62.81
54556;BME280;57291;37.520;15.106;2023-06-14T06:08:56;100699.38;;;29.62;63.16
54556;BME280;57291;37.520;15.106;2023-06-14T06:11:24;100704.19;;;29.62;61.69
54556;BME280;57291;37.520;15.106;2023-06-14T06:13:51;100702.09;;;29.42;62.02
54556;BME280;57291;37.520;15.106;2023-06-14T06:16:18;100704.44;;;29.20;62.22
54556;BME280;57291;37.520;15.106;2023-06-14T06:18:45;100710.72;;;28.36;65.49
54556;BME280;57291;37.520;15.106;2023-06-14T06:21:12;100723.25;;;28.24;65.66
54556;BME280;57291;37.520;15.106;2023-06-14T06:23:39;100710.94;;;27.80;66.90
54556;BME280;57291;37.520;15.106;2023-06-14T06:26:07;100714.66;;;27.63;69.44
54556;BME280;57291;37.520;15.106;2023-06-14T06:28:34;100710.28;;;27.62;70.75
54556;BME280;57291;37.520;15.106;2023-06-14T06:31:01;100712.38;;;27.51;70.19
54556;BME280;57291;37.520;15.106;2023-06-14T06:33:31;100725.31;;;27.79;68.53
54556;BME280;57291;37.520;15.106;2023-06-14T06:35:58;100723.34;;;27.72;69.72
54556;BME280;57291;37.520;15.106;2023-06-14T06:38:25;100724.25;;;27.62;69.41
54556;BME280;57291;37.520;15.106;2023-06-14T06:40:52;100716.09;;;27.86;67.89
54556;BME280;57291;37.520;15.106;2023-06-14T06:43:21;100718.53;;;27.80;68.56
54556;BME280;57291;37.520;15.106;2023-06-14T06:45:49;100709.06;;;27.18;72.01
54556;BME280;57291;37.520;15.106;2023-06-14T06:48:16;100713.50;;;27.05;73.40
54556;BME280;57291;37.520;15.106;2023-06-14T06:50:43;100718.25;;;27.15;72.87
54556;BME280;57291;37.520;15.106;2023-06-14T06:53:10;100716.81;;;26.85;73.45
54556;BME280;57291;37.520;15.106;2023-06-14T06:55:38;100716.97;;;27.23;73.27
54556;BME280;57291;37.520;15.106;2023-06-14T06:58:06;100718.00;;;27.44;71.97
54556;BME280;57291;37.520;15.106;2023-06-14T07:00:33;100708.69;;;27.09;70.68
54556;BME280;57291;37.520;15.106;2023-06-14T07:20:18;100725.72;;;26.52;73.84
54556;BME280;57291;37.520;15.106;2023-06-14T07:22:45;100726.44;;;26.66;74.76
54556;BME280;57291;37.520;15.106;2023-06-14T07:25:13;100738.66;;;26.94;73.84
54556;BME280;57291;37.520;15.106;2023-06-14T07:27:43;100746.34;;;26.72;74.98
54556;BME280;57291;37.520;15.106;2023-06-14T07:30:10;100747.28;;;26.30;75.40
54556;BME280;57291;37.520;15.106;2023-06-14T07:32:38;100742.16;;;25.85;78.53
54556;BME280;57291;37.520;15.106;2023-06-14T07:35:05;100748.91;;;25.41;82.28
54556;BME280;57291;37.520;15.106;2023-06-14T07:37:33;100749.28;;;25.36;84.65
54556;BME280;57291;37.520;15.106;2023-06-14T07:40:00;100757.63;;;25.43;85.25
54556;BME280;57291;37.520;15.106;2023-06-14T07:42:29;100754.88;;;25.58;84.62
54556;BME280;57291;37.520;15.106;2023-06-14T07:44:57;100764.06;;;25.83;85.09
54556;BME280;57291;37.520;15.106;2023-06-14T07:47:24;100762.06;;;25.87;84.11
54556;BME280;57291;37.520;15.106;2023-06-14T07:49:52;100758.44;;;25.62;85.59
54556;BME280;57291;37.520;15.106;2023-06-14T07:52:19;100761.22;;;25.72;85.70
54556;BME280;57291;37.520;15.106;2023-06-14T07:54:46;100774.38;;;25.83;85.54
54556;BME280;57291;37.520;15.106;2023-06-14T07:57:13;100764.41;;;25.96;84.92
54556;BME280;57291;37.520;15.106;2023-06-14T07:59:41;100778.34;;;25.89;83.99
54556;BME280;57291;37.520;15.106;2023-06-14T08:02:08;100784.31;;;26.05;84.42
54556;BME280;57291;37.520;15.106;2023-06-14T08:04:35;100783.53;;;25.98;84.20
54556;BME280;57291;37.520;15.106;2023-06-14T08:07:03;100781.13;;;25.85;85.60
54556;BME280;57291;37.520;15.106;2023-06-14T08:09:35;100779.13;;;25.75;85.59
54556;BME280;57291;37.520;15.106;2023-06-14T08:12:07;100784.28;;;25.69;86.44
54556;BME280;57291;37.520;15.106;2023-06-14T08:14:37;100775.16;;;25.69;86.41
54556;BME280;57291;37.520;15.106;2023-06-14T08:17:04;100776.00;;;25.80;86.25
54556;BME280;57291;37.520;15.106;2023-06-14T08:19:31;100769.59;;;25.69;86.50
54556;BME280;57291;37.520;15.106;2023-06-14T08:21:58;100775.94;;;25.44;87.61
54556;BME280;57291;37.520;15.106;2023-06-14T08:24:26;100774.34;;;25.54;87.45
54556;BME280;57291;37.520;15.106;2023-06-14T08:26:54;100774.34;;;25.54;87.55
54556;BME280;57291;37.520;15.106;2023-06-14T08:29:21;100776.34;;;25.68;87.96
54556;BME280;57291;37.520;15.106;2023-06-14T08:31:48;100774.75;;;25.78;86.41
54556;BME280;57291;37.520;15.106;2023-06-14T08:34:15;100770.38;;;25.73;86.39
54556;BME280;57291;37.520;15.106;2023-06-14T08:36:43;100769.59;;;25.55;87.56
54556;BME280;57291;37.520;15.106;2023-06-14T08:39:10;100768.78;;;25.58;87.45
54556;BME280;57291;37.520;15.106;2023-06-14T08:41:38;100763.22;;;25.50;87.99
54556;BME280;57291;37.520;15.106;2023-06-14T08:44:05;100777.09;;;25.29;88.96
54556;BME280;57291;37.520;15.106;2023-06-14T08:46:35;100771.16;;;25.56;89.05
54556;BME280;57291;37.520;15.106;2023-06-14T08:49:04;100764.84;;;25.91;87.29
54556;BME280;57291;37.520;15.106;2023-06-14T08:51:35;100762.00;;;26.09;85.61
54556;BME280;57291;37.520;15.106;2023-06-14T08:54:03;100765.22;;;25.75;87.07
54556;BME280;57291;37.520;15.106;2023-06-14T08:56:31;100753.63;;;25.23;89.96
54556;BME280;57291;37.520;15.106;2023-06-14T08:59:01;100748.38;;;24.93;91.95
54556;BME280;57291;37.520;15.106;2023-06-14T09:01:33;100742.69;;;24.57;94.63
54556;BME280;57291;37.520;15.106;2023-06-14T09:04:01;100739.22;;;24.78;95.11
54556;BME280;57291;37.520;15.106;2023-06-14T09:06:29;100735.31;;;25.08;93.32
54556;BME280;57291;37.520;15.106;2023-06-14T09:08:56;100745.69;;;25.18;92.01
54556;BME280;57291;37.520;15.106;2023-06-14T09:11:24;100766.34;;;25.20;93.14
54556;BME280;57291;37.520;15.106;2023-06-14T09:13:53;100762.38;;;25.18;93.13
54556;BME280;57291;37.520;15.106;2023-06-14T09:16:20;100751.19;;;25.03;93.73
54556;BME280;57291;37.520;15.106;2023-06-14T09:18:48;100746.38;;;24.90;95.71
54556;BME280;57291;37.520;15.106;2023-06-14T09:21:16;100745.56;;;24.75;96.99
54556;BME280;57291;37.520;15.106;2023-06-14T09:23:46;100752.25;;;24.67;97.95
54556;BME280;57291;37.520;15.106;2023-06-14T09:26:15;100745.44;;;24.53;98.41
54556;BME280;57291;37.520;15.106;2023-06-14T09:28:47;100741.53;;;24.62;98.55
54556;BME280;57291;37.520;15.106;2023-06-14T09:31:16;100750.28;;;24.71;98.00
54556;BME280;57291;37.520;15.106;2023-06-14T09:33:47;100749.19;;;25.00;97.55
54556;BME280;57291;37.520;15.106;2023-06-14T09:36:22;100747.31;;;25.44;93.82
54556;BME280;57291;37.520;15.106;2023-06-14T09:38:55;100749.69;;;25.49;92.08
54556;BME280;57291;37.520;15.106;2023-06-14T09:41:33;100752.78;;;25.01;94.27
54556;BME280;57291;37.520;15.106;2023-06-14T09:44:04;100755.81;;;24.60;97.33
54556;BME280;57291;37.520;15.106;2023-06-14T09:46:37;100753.19;;;24.19;100.00
54556;BME280;57291;37.520;15.106;2023-06-14T09:49:05;100751.50;;;24.07;100.00
54556;BME280;57291;37.520;15.106;2023-06-14T09:51:33;100750.25;;;23.94;100.00
54556;BME280;57291;37.520;15.106;2023-06-14T09:54:03;100748.25;;;23.95;100.00
54556;BME280;57291;37.520;15.106;2023-06-14T09:56:44;100755.09;;;24.11;100.00
54556;BME280;57291;37.520;15.106;2023-06-14T09:59:12;100754.06;;;24.34;100.00
54556;BME280;57291;37.520;15.106;2023-06-14T10:01:43;100754.19;;;24.52;100.00
54556;BME280;57291;37.520;15.106;2023-06-14T10:04:12;100746.69;;;24.63;100.00
54556;BME280;57291;37.520;15.106;2023-06-14T10:06:41;100740.75;;;24.65;100.00
54556;BME280;57291;37.520;15.106;2023-06-14T10:09:11;100744.34;;;24.72;100.00
54556;BME280;57291;37.520;15.106;2023-06-14T10:11:38;100742.38;;;24.84;98.99
54556;BME280;57291;37.520;15.106;2023-06-14T10:14:12;100731.22;;;24.66;99.36
54556;BME280;57291;37.520;15.106;2023-06-14T10:23:37;100729.56;;;24.54;100.00
54556;BME280;57291;37.520;15.106;2023-06-14T10:25:43;100727.19;;;24.49;100.00
54556;BME280;57291;37.520;15.106;2023-06-14T10:50:15;100703.88;;;23.98;100.00
54556;BME280;57291;37.520;15.106;2023-06-14T10:52:43;100725.81;;;24.21;100.00
54556;BME280;57291;37.520;15.106;2023-06-14T10:55:19;100725.56;;;24.44;100.00
54556;BME280;57291;37.520;15.106;2023-06-14T10:57:51;100731.22;;;24.66;100.00
54556;BME280;57291;37.520;15.106;2023-06-14T11:00:23;100743.13;;;24.63;100.00
54556;BME280;57291;37.520;15.106;2023-06-14T11:03:36;100736.44;;;24.82;100.00
54556;BME280;57291;37.520;15.106;2023-06-14T11:06:14;100740.44;;;24.95;99.32
54556;BME280;57291;37.520;15.106;2023-06-14T11:11:21;100736.50;;;25.07;99.75
54556;BME280;57291;37.520;15.106;2023-06-14T11:13:51;100734.97;;;25.20;98.07
54556;BME280;57291;37.520;15.106;2023-06-14T11:16:26;100740.16;;;25.25;96.41
54556;BME280;57291;37.520;15.106;2023-06-14T11:18:54;100726.22;;;25.18;96.70
54556;BME280;57291;37.520;15.106;2023-06-14T11:21:21;100730.59;;;25.33;96.31
54556;BME280;57291;37.520;15.106;2023-06-14T11:23:52;100726.25;;;25.43;94.90
54556;BME280;57291;37.520;15.106;2023-06-14T11:26:31;100730.63;;;25.47;92.68
54556;BME280;57291;37.520;15.106;2023-06-14T11:29:00;100732.94;;;25.10;95.15
54556;BME280;57291;37.520;15.106;2023-06-14T11:31:28;100726.94;;;24.97;97.02
54556;BME280;57291;37.520;15.106;2023-06-14T11:33:57;100715.38;;;24.84;97.12
54556;BME280;57291;37.520;15.106;2023-06-14T11:36:33;100715.78;;;24.75;97.99
54556;BME280;57291;37.520;15.106;2023-06-14T11:39:05;100720.94;;;24.84;98.11
54556;BME280;57291;37.520;15.106;2023-06-14T11:41:44;100717.00;;;24.82;98.30
54556;BME280;57291;37.520;15.106;2023-06-14T11:44:12;100718.94;;;24.74;98.86
54556;BME280;57291;37.520;15.106;2023-06-14T11:46:39;100714.94;;;24.68;99.81
54556;BME280;57291;37.520;15.106;2023-06-14T11:49:07;100707.44;;;24.75;98.87
54556;BME280;57291;37.520;15.106;2023-06-14T11:51:36;100693.09;;;24.63;99.18
54556;BME280;57291;37.520;15.106;2023-06-14T11:54:05;100699.78;;;24.44;100.00
54556;BME280;57291;37.520;15.106;2023-06-14T11:56:33;100703.75;;;24.46;99.81
54556;BME280;57291;37.520;15.106;2023-06-14T11:59:02;100705.72;;;24.42;99.55
54556;BME280;57291;37.520;15.106;2023-06-14T12:01:30;100698.19;;;24.43;99.90
54556;BME280;57291;37.520;15.106;2023-06-14T12:03:59;100707.78;;;24.63;99.52
54556;BME280;57291;37.520;15.106;2023-06-14T12:06:29;100714.97;;;24.71;97.93
54556;BME280;57291;37.520;15.106;2023-06-14T12:09:03;100714.50;;;24.51;98.69
54556;BME280;57291;37.520;15.106;2023-06-14T12:11:35;100708.44;;;24.35;100.00
54556;BME280;57291;37.520;15.106;2023-06-14T12:14:04;100710.34;;;24.24;100.00
54556;BME280;57291;37.520;15.106;2023-06-14T12:16:34;100718.66;;;24.17;100.00
54556;BME280;57291;37.520;15.106;2023-06-14T12:19:16;100716.63;;;24.10;100.00
54556;BME280;57291;37.520;15.106;2023-06-14T12:21:48;100713.41;;;24.04;100.00
54556;BME280;57291;37.520;15.106;2023-06-14T12:24:19;100711.50;;;24.12;100.00
54556;BME280;57291;37.520;15.106;2023-06-14T12:26:46;100716.63;;;24.10;100.00
54556;BME280;57291;37.520;15.106;2023-06-14T12:29:14;100706.38;;;24.21;100.00
54556;BME280;57291;37.520;15.106;2023-06-14T12:31:41;100693.19;;;24.00;100.00
54556;BME280;57291;37.520;15.106;2023-06-14T12:34:09;100694.41;;;24.06;100.00
54556;BME280;57291;37.520;15.106;2023-06-14T12:36:36;100686.56;;;24.23;100.00
54556;BME280;57291;37.520;15.106;2023-06-14T12:39:08;100682.72;;;24.45;100.00
54556;BME280;57291;37.520;15.106;2023-06-14T12:41:36;100676.03;;;24.68;98.52
54556;BME280;57291;37.520;15.106;2023-06-14T12:44:09;100679.22;;;24.70;97.26
54556;BME280;57291;37.520;15.106;2023-06-14T12:46:36;100675.25;;;24.67;98.99
54556;BME280;57291;37.520;15.106;2023-06-14T12:49:08;100678.00;;;24.64;98.72
54556;BME280;57291;37.520;15.106;2023-06-14T12:51:35;100676.41;;;24.48;95.91
54556;BME280;57291;37.520;15.106;2023-06-14T12:54:02;100675.09;;;24.31;99.31
54556;BME280;57291;37.520;15.106;2023-06-14T12:56:30;100667.44;;;24.03;99.70
54556;BME280;57291;37.520;15.106;2023-06-14T12:58:58;100668.63;;;24.02;100.00
54556;BME280;57291;37.520;15.106;2023-06-14T13:01:25;100675.44;;;24.16;99.49
54556;BME280;57291;37.520;15.106;2023-06-14T13:03:53;100675.31;;;23.98;100.00
54556;BME280;57291;37.520;15.106;2023-06-14T13:06:21;100675.72;;;24.00;100.00
54556;BME280;57291;37.520;15.106;2023-06-14T13:08:52;100677.22;;;23.83;100.00
54556;BME280;57291;37.520;15.106;2023-06-14T13:11:21;100684.31;;;23.77;100.00
54556;BME280;57291;37.520;15.106;2023-06-14T13:13:48;100672.09;;;23.92;100.00
54556;BME280;57291;37.520;15.106;2023-06-14T13:16:16;100681.63;;;23.91;99.65
54556;BME280;57291;37.520;15.106;2023-06-14T13:18:45;100670.63;;;24.05;100.00
54556;BME280;57291;37.520;15.106;2023-06-14T13:21:12;100676.94;;;23.99;100.00
54556;BME280;57291;37.520;15.106;2023-06-14T13:23:39;100671.78;;;24.04;99.20
54556;BME280;57291;37.520;15.106;2023-06-14T13:26:06;100666.59;;;23.96;99.32
54556;BME280;57291;37.520;15.106;2023-06-14T13:28:34;100659.88;;;24.00;100.00
54556;BME280;57291;37.520;15.106;2023-06-14T13:31:02;100656.78;;;24.16;100.00
54556;BME280;57291;37.520;15.106;2023-06-14T13:33:29;100653.25;;;24.23;100.00
54556;BME280;57291;37.520;15.106;2023-06-14T13:35:56;100649.25;;;24.17;100.00